Terminal Aerodrome Forecast
Issued by NWS Chicago, IL

Home | Current Version | Previous Version | Text Only | Print | Product List | Glossary On
Versions: 1 2 3 4 5 6 7 8 9 10 11 12 13 14 15 16 17 18 19 20 21 22 23 24 25 26 27 28 29 30 31
000
FTUS43 KLOT 242103 AAA
TAFRFD
TAF AMD
KRFD 242103Z 2421/2518 12008KT P6SM OVC015
     FM242300 12007KT 6SM -RASN BR OVC015
     FM250200 12007KT P6SM VCSH OVC015
     FM250700 13012G16KT 3SM -SHRA VCTS OVC009CB
      TEMPO 2507/2510 1 1/2SM -RASN OVC005
     FM251000 15012G18KT 6SM -RA BR OVC005=

USA.gov is the U.S. government's official web portal to all federal, state and local government web resources and services.